createdAt,value
2019-01-22T00:00:53.824Z,127.07
2019-01-22T00:03:20.775Z,109.60
2019-01-22T00:05:47.659Z,118.03
2019-01-22T00:08:14.660Z,116.37
2019-01-22T00:10:41.739Z,115.27
2019-01-22T00:13:09.006Z,119.90
2019-01-22T00:15:36.120Z,109.43
2019-01-22T00:18:03.480Z,117.07
2019-01-22T00:20:30.479Z,111.90
2019-01-22T00:23:02.772Z,126.07
2019-01-22T00:25:26.257Z,123.60
2019-01-22T00:27:53.504Z,110.23
2019-01-22T00:30:20.487Z,123.03
2019-01-22T00:32:47.393Z,114.67
2019-01-22T00:35:14.560Z,119.63
2019-01-22T00:37:41.828Z,131.47
2019-01-22T00:40:09.827Z,124.67
2019-01-22T00:42:36.824Z,118.00
2019-01-22T00:45:03.963Z,117.17
2019-01-22T00:47:30.837Z,124.40
2019-01-22T00:49:57.666Z,116.90
2019-01-22T00:52:24.596Z,123.60
2019-01-22T00:54:51.631Z,126.97
2019-01-22T00:57:18.589Z,110.97
2019-01-22T00:59:46.653Z,118.73
2019-01-22T01:02:13.741Z,116.90
2019-01-22T01:04:40.755Z,115.40
2019-01-22T01:07:07.704Z,120.30
2019-01-22T01:09:34.638Z,115.73
2019-01-22T01:12:01.486Z,114.77
2019-01-22T01:14:28.504Z,109.63
2019-01-22T01:16:55.588Z,114.60
2019-01-22T01:19:22.443Z,117.10
2019-01-22T01:21:50.015Z,111.10
2019-01-22T01:24:17.391Z,110.93
2019-01-22T01:26:44.251Z,110.13
2019-01-22T01:29:11.182Z,116.33
2019-01-22T01:31:38.108Z,118.50
2019-01-22T01:34:05.061Z,114.93
2019-01-22T01:36:32.275Z,107.13
2019-01-22T01:38:59.187Z,128.37
2019-01-22T01:41:26.044Z,113.90
2019-01-22T01:43:55.827Z,109.10
2019-01-22T01:46:22.925Z,111.30
2019-01-22T01:48:50.044Z,114.50
2019-01-22T01:51:16.887Z,108.93
2019-01-22T01:53:43.743Z,110.27
2019-01-22T01:56:10.709Z,111.07
2019-01-22T01:58:37.935Z,105.13
2019-01-22T02:01:05.027Z,107.97
2019-01-22T02:03:31.850Z,111.93
2019-01-22T02:05:59.001Z,110.87
2019-01-22T02:08:25.986Z,110.63
2019-01-22T02:10:52.925Z,109.53
2019-01-22T02:13:30.892Z,100.63
2019-01-22T02:16:01.073Z,111.63
2019-01-22T02:18:48.096Z,112.90
2019-01-22T02:21:25.861Z,112.47
2019-01-22T02:24:11.555Z,100.77
2019-01-22T02:26:50.235Z,108.27
2019-01-22T02:29:20.120Z,105.67
2019-01-22T02:31:55.509Z,97.83
2019-01-22T02:34:29.187Z,105.70
2019-01-22T02:37:15.752Z,93.10
2019-01-22T02:39:45.609Z,102.13
2019-01-22T02:42:24.723Z,98.50
2019-01-22T02:45:00.349Z,92.43
2019-01-22T02:47:29.936Z,97.07
2019-01-22T02:50:11.001Z,93.47
2019-01-22T02:52:42.848Z,95.63
2019-01-22T02:55:15.778Z,95.33
2019-01-22T02:58:02.377Z,87.60
2019-01-22T03:00:48.019Z,85.37
2019-01-22T03:03:31.128Z,86.80
2019-01-22T03:06:02.594Z,93.20
2019-01-22T03:08:58.637Z,83.53
2019-01-22T03:12:03.416Z,89.00
2019-01-22T03:14:37.718Z,86.27
2019-01-22T03:17:09.300Z,94.97
2019-01-22T03:19:39.920Z,86.07
2019-01-22T03:22:14.604Z,85.27
2019-01-22T03:24:48.312Z,89.23
2019-01-22T03:27:31.124Z,81.80
2019-01-22T03:30:05.071Z,80.53
2019-01-22T03:32:37.662Z,86.83
2019-01-22T03:35:39.378Z,88.07
2019-01-22T03:38:34.766Z,82.17
2019-01-22T03:41:15.431Z,80.60
2019-01-22T03:43:49.320Z,86.47
2019-01-22T03:46:19.323Z,80.83
2019-01-22T03:48:57.277Z,82.23
2019-01-22T03:51:26.399Z,85.70
2019-01-22T03:54:22.238Z,80.90
2019-01-22T03:56:55.231Z,87.20
2019-01-22T03:59:22.091Z,91.27
2019-01-22T04:01:49.096Z,81.90
2019-01-22T04:04:15.940Z,90.80
2019-01-22T04:06:48.266Z,90.40
2019-01-22T04:09:17.248Z,87.60
2019-01-22T04:11:45.800Z,83.67
2019-01-22T04:14:12.953Z,84.27
2019-01-22T04:16:40.091Z,92.90
2019-01-22T04:19:07.057Z,93.13
2019-01-22T04:21:36.449Z,94.83
2019-01-22T04:24:12.479Z,91.20
2019-01-22T04:27:04.950Z,103.17
2019-01-22T04:29:53.474Z,83.67
2019-01-22T04:32:26.306Z,93.03
2019-01-22T04:35:12.891Z,86.60
2019-01-22T04:37:54.510Z,92.20
2019-01-22T04:40:39.983Z,79.60
2019-01-22T04:43:13.321Z,86.10
2019-01-22T04:45:59.723Z,88.27
2019-01-22T04:48:33.253Z,88.30
2019-01-22T04:51:06.808Z,78.40
2019-01-22T04:53:43.500Z,87.60
2019-01-22T04:56:28.792Z,85.73
2019-01-22T04:58:59.642Z,83.80
2019-01-22T05:01:46.284Z,79.27
2019-01-22T05:04:18.119Z,70.17
2019-01-22T05:06:52.355Z,68.07
2019-01-22T05:09:38.376Z,80.60
2019-01-22T05:12:23.524Z,76.97
2019-01-22T05:15:04.596Z,81.77
2019-01-22T05:17:49.820Z,79.60
2019-01-22T05:20:22.885Z,86.63
2019-01-22T05:23:02.169Z,81.03
2019-01-22T05:25:48.780Z,82.50
2019-01-22T05:28:21.135Z,90.90
2019-01-22T05:31:03.829Z,75.67
2019-01-22T05:33:53.652Z,79.00
2019-01-22T05:36:38.947Z,79.60
2019-01-22T05:39:08.807Z,76.40
2019-01-22T05:41:55.434Z,77.80
2019-01-22T05:44:37.644Z,79.33
2019-01-22T05:47:09.740Z,80.70
2019-01-22T05:49:56.343Z,86.10
2019-01-22T05:52:37.398Z,78.80
2019-01-22T05:55:07.158Z,86.70
2019-01-22T05:57:41.164Z,86.27
2019-01-22T06:00:26.544Z,78.60
2019-01-22T06:02:56.048Z,75.63
2019-01-22T06:05:28.832Z,75.30
2019-01-22T06:08:04.328Z,77.67
2019-01-22T06:10:41.491Z,84.53
2019-01-22T06:13:28.095Z,81.73
2019-01-22T06:16:16.649Z,87.97
2019-01-22T06:19:03.212Z,79.63
2019-01-22T06:21:55.940Z,79.60
2019-01-22T06:24:35.177Z,76.37
2019-01-22T06:27:04.297Z,82.63
2019-01-22T06:30:08.784Z,80.73
2019-01-22T06:32:38.644Z,77.33
2019-01-22T06:35:24.000Z,81.30
2019-01-22T06:37:53.644Z,82.60
2019-01-22T06:40:38.836Z,84.53
2019-01-22T06:43:12.419Z,85.53
2019-01-22T06:45:46.572Z,88.63
2019-01-22T06:48:34.129Z,73.37
2019-01-22T06:51:08.481Z,76.27
2019-01-22T06:53:57.897Z,80.80
2019-01-22T06:56:35.076Z,77.23
2019-01-22T06:59:19.860Z,77.90
2019-01-22T07:02:07.615Z,75.27
2019-01-22T07:04:54.214Z,75.87
2019-01-22T07:07:46.577Z,75.53
2019-01-22T07:10:17.234Z,77.37
2019-01-22T07:13:02.501Z,82.63
2019-01-22T07:15:40.619Z,83.07
2019-01-22T07:18:12.213Z,79.70
2019-01-22T07:21:08.051Z,80.30
2019-01-22T07:24:00.367Z,79.33
2019-01-22T07:26:33.246Z,76.40
2019-01-22T07:29:18.561Z,68.63
2019-01-22T07:32:08.388Z,76.70
2019-01-22T07:35:12.934Z,73.67
2019-01-22T07:37:51.714Z,76.20
2019-01-22T07:40:32.149Z,61.03
2019-01-22T07:43:06.844Z,81.27
2019-01-22T07:45:48.370Z,71.70
2019-01-22T07:48:17.957Z,78.83
2019-01-22T07:51:10.728Z,77.80
2019-01-22T07:53:50.346Z,70.03
2019-01-22T07:56:20.150Z,74.60
2019-01-22T07:58:54.152Z,78.43
2019-01-22T08:01:27.492Z,68.13
2019-01-22T08:04:08.061Z,66.50
2019-01-22T08:06:43.769Z,74.87
2019-01-22T08:09:17.370Z,65.57
2019-01-22T08:12:09.956Z,75.53
2019-01-22T08:14:59.048Z,72.17
2019-01-22T08:17:44.187Z,71.30
2019-01-22T08:20:42.956Z,71.97
2019-01-22T08:23:13.248Z,77.70
2019-01-22T08:25:49.760Z,87.43
2019-01-22T08:28:19.517Z,70.37
2019-01-22T08:31:04.623Z,71.97
2019-01-22T08:33:40.112Z,68.47
2019-01-22T08:36:10.408Z,65.00
2019-01-22T08:38:43.505Z,66.57
2019-01-22T08:41:18.489Z,71.67
2019-01-22T08:44:03.517Z,70.20
2019-01-22T08:46:37.191Z,65.03
2019-01-22T08:49:41.694Z,68.63
2019-01-22T08:52:34.358Z,69.63
2019-01-22T08:55:14.896Z,74.70
2019-01-22T08:57:51.752Z,75.43
2019-01-22T09:00:34.408Z,77.00
2019-01-22T09:03:35.935Z,70.23
2019-01-22T09:06:14.980Z,70.60
2019-01-22T09:08:45.595Z,69.80
2019-01-22T09:11:26.686Z,72.97
2019-01-22T09:13:59.729Z,80.93
2019-01-22T09:16:49.868Z,73.87
2019-01-22T09:19:21.829Z,68.33
2019-01-22T09:22:12.037Z,74.03
2019-01-22T09:24:44.733Z,69.80
2019-01-22T09:27:35.025Z,72.23
2019-01-22T09:30:20.466Z,59.97
2019-01-22T09:32:56.614Z,68.00
2019-01-22T09:36:01.092Z,73.03
2019-01-22T09:38:28.077Z,64.73
2019-01-22T09:40:55.020Z,68.33
2019-01-22T09:43:22.036Z,67.17
2019-01-22T09:45:49.005Z,69.70
2019-01-22T09:48:15.897Z,69.90
2019-01-22T09:50:42.987Z,67.90
2019-01-22T09:53:09.889Z,60.87
2019-01-22T09:55:36.779Z,68.57
2019-01-22T09:58:03.801Z,67.17
2019-01-22T10:00:30.837Z,75.93
2019-01-22T10:02:57.698Z,61.53
2019-01-22T10:05:24.593Z,69.40
2019-01-22T10:07:51.543Z,66.47
2019-01-22T10:10:18.864Z,60.03
2019-01-22T10:12:45.911Z,50.00
2019-01-22T10:15:14.175Z,61.13
2019-01-22T10:17:41.037Z,58.70
2019-01-22T10:20:09.515Z,57.43
2019-01-22T10:22:36.401Z,57.63
2019-01-22T10:25:03.632Z,61.07
2019-01-22T10:27:30.533Z,66.30
2019-01-22T10:29:57.993Z,66.40
2019-01-22T10:32:25.193Z,62.37
2019-01-22T10:34:52.760Z,63.87
2019-01-22T10:37:20.112Z,65.23
2019-01-22T10:39:47.356Z,63.83
2019-01-22T10:42:14.359Z,65.77
2019-01-22T10:44:42.446Z,66.03
2019-01-22T10:47:09.976Z,66.17
2019-01-22T10:49:37.248Z,63.53
2019-01-22T10:52:04.217Z,64.70
2019-01-22T10:54:31.266Z,64.97
2019-01-22T10:56:58.127Z,63.17
2019-01-22T10:59:25.784Z,62.37
2019-01-22T11:01:52.758Z,58.13
2019-01-22T11:04:19.859Z,68.43
2019-01-22T11:06:46.720Z,61.40
2019-01-22T11:09:13.685Z,62.27
2019-01-22T11:11:40.533Z,58.83
2019-01-22T11:14:07.408Z,56.57
2019-01-22T11:16:34.330Z,54.00
2019-01-22T11:19:01.189Z,60.37
2019-01-22T11:21:28.095Z,58.37
2019-01-22T11:23:54.964Z,53.07
2019-01-22T11:26:22.055Z,58.50
2019-01-22T11:28:48.920Z,55.97
2019-01-22T11:31:15.851Z,55.87
2019-01-22T11:33:42.870Z,56.07
2019-01-22T11:36:09.716Z,53.33
2019-01-22T11:38:36.581Z,62.97
2019-01-22T11:41:03.597Z,55.27
2019-01-22T11:43:30.507Z,53.27
2019-01-22T11:45:57.331Z,48.17
2019-01-22T11:48:24.416Z,58.80
2019-01-22T11:50:52.029Z,55.23
2019-01-22T11:53:18.949Z,48.70
2019-01-22T11:55:50.479Z,53.23
2019-01-22T11:58:14.723Z,52.97
2019-01-22T12:00:55.600Z,58.57
2019-01-22T12:03:22.669Z,51.13
2019-01-22T12:05:53.165Z,51.63
2019-01-22T12:08:18.441Z,50.60
2019-01-22T12:10:45.305Z,57.90
2019-01-22T12:13:12.160Z,51.20
2019-01-22T12:15:39.218Z,47.30
2019-01-22T12:18:06.253Z,54.60
2019-01-22T12:20:33.293Z,51.50
2019-01-22T12:23:00.279Z,49.47
2019-01-22T12:25:27.182Z,45.90
2019-01-22T12:27:54.130Z,58.13
2019-01-22T12:30:22.447Z,50.93
2019-01-22T12:32:49.385Z,45.20
2019-01-22T12:35:16.354Z,50.67
2019-01-22T12:37:43.208Z,43.80
2019-01-22T12:40:10.521Z,53.20
2019-01-22T12:42:37.484Z,48.57
2019-01-22T12:45:05.877Z,54.17
2019-01-22T12:47:32.701Z,54.43
2019-01-22T12:49:59.506Z,51.60
2019-01-22T12:52:27.183Z,53.00
2019-01-22T12:54:54.124Z,57.53
2019-01-22T12:57:20.911Z,53.10
2019-01-22T12:59:47.735Z,44.03
2019-01-22T13:02:14.507Z,41.60
2019-01-22T13:04:42.176Z,48.23
2019-01-22T13:07:09.326Z,46.90
2019-01-22T13:09:36.928Z,51.90
2019-01-22T13:12:03.827Z,55.90
2019-01-22T13:14:30.672Z,47.97
2019-01-22T13:16:57.594Z,49.17
2019-01-22T13:19:24.574Z,47.20
2019-01-22T13:21:51.857Z,49.07
2019-01-22T13:24:18.986Z,45.50
2019-01-22T13:26:46.173Z,49.13
2019-01-22T13:29:13.294Z,46.23
2019-01-22T13:31:40.350Z,47.97
2019-01-22T13:34:07.462Z,57.77
2019-01-22T13:36:34.552Z,48.00
2019-01-22T13:39:01.569Z,44.93
2019-01-22T13:41:28.736Z,54.47
2019-01-22T13:43:55.855Z,44.43
2019-01-22T13:46:23.139Z,42.60
2019-01-22T13:48:50.320Z,49.77
2019-01-22T13:51:17.433Z,42.43
2019-01-22T13:53:44.570Z,40.83
2019-01-22T13:56:18.392Z,40.80
2019-01-22T13:58:40.846Z,42.37
2019-01-22T14:01:07.989Z,43.60
2019-01-22T14:03:35.276Z,41.40
2019-01-22T14:06:02.379Z,47.90
2019-01-22T14:08:29.258Z,38.70
2019-01-22T14:10:56.060Z,47.03
2019-01-22T14:13:23.001Z,45.23
2019-01-22T14:15:49.977Z,44.50
2019-01-22T14:18:16.812Z,47.77
2019-01-22T14:20:43.696Z,43.13
2019-01-22T14:23:10.576Z,41.57
2019-01-22T14:25:37.492Z,46.10
2019-01-22T14:28:04.622Z,43.30
2019-01-22T14:30:32.618Z,45.83
2019-01-22T14:32:59.719Z,46.47
2019-01-22T14:35:26.585Z,44.50
2019-01-22T14:37:53.447Z,45.03
2019-01-22T14:40:21.482Z,41.77
2019-01-22T14:42:48.492Z,47.10
2019-01-22T14:45:15.370Z,58.57
2019-01-22T14:47:42.219Z,56.40
2019-01-22T14:50:10.733Z,46.03
2019-01-22T14:52:37.693Z,41.10
2019-01-22T14:55:05.768Z,42.03
2019-01-22T14:57:32.665Z,39.30
2019-01-22T14:59:59.487Z,40.37
2019-01-22T15:02:26.348Z,55.27
2019-01-22T15:04:53.252Z,42.57
2019-01-22T15:07:20.072Z,41.47
2019-01-22T15:09:46.874Z,41.77
2019-01-22T15:12:13.757Z,37.60
2019-01-22T15:14:40.681Z,42.13
2019-01-22T15:17:07.541Z,37.90
2019-01-22T15:19:34.813Z,46.83
2019-01-22T15:22:01.628Z,43.07
2019-01-22T15:24:28.489Z,40.67
2019-01-22T15:26:55.559Z,53.10
2019-01-22T15:29:22.395Z,42.80
2019-01-22T15:31:49.263Z,43.57
2019-01-22T15:34:16.348Z,44.40
2019-01-22T15:36:43.188Z,49.23
2019-01-22T15:39:10.032Z,48.10
2019-01-22T15:41:36.865Z,42.40
2019-01-22T15:44:03.813Z,49.27
2019-01-22T15:46:30.613Z,46.23
2019-01-22T15:48:57.748Z,39.67
2019-01-22T15:51:24.540Z,47.90
2019-01-22T15:53:51.442Z,37.23
2019-01-22T15:56:18.650Z,41.80
2019-01-22T15:58:45.543Z,45.60
2019-01-22T16:01:12.388Z,47.63
2019-01-22T16:03:39.533Z,47.00
2019-01-22T16:06:06.440Z,46.23
2019-01-22T16:08:33.302Z,59.17
2019-01-22T16:11:00.351Z,54.37
2019-01-22T16:13:27.218Z,52.17
2019-01-22T16:15:54.198Z,50.63
2019-01-22T16:18:21.064Z,45.30
2019-01-22T16:20:48.021Z,53.87
2019-01-22T16:23:14.944Z,49.47
2019-01-22T16:25:41.831Z,49.17
2019-01-22T16:28:08.764Z,50.97
2019-01-22T16:30:35.922Z,47.33
2019-01-22T16:33:03.157Z,45.37
2019-01-22T16:35:30.121Z,47.00
2019-01-22T16:37:56.985Z,48.50
2019-01-22T16:40:24.378Z,50.30
2019-01-22T16:42:52.399Z,42.53
2019-01-22T16:45:20.685Z,48.97
2019-01-22T16:47:47.583Z,44.73
2019-01-22T16:50:15.563Z,42.80
2019-01-22T16:52:42.454Z,40.57
2019-01-22T16:55:11.067Z,48.70
2019-01-22T16:57:37.930Z,46.67
2019-01-22T17:00:06.109Z,44.13
2019-01-22T17:02:33.394Z,42.30
2019-01-22T17:05:00.281Z,50.73
2019-01-22T17:07:27.204Z,51.23
2019-01-22T17:09:54.085Z,43.27
2019-01-22T17:12:21.041Z,42.63
2019-01-22T17:14:47.967Z,41.07
2019-01-22T17:17:14.867Z,54.47
2019-01-22T17:19:41.736Z,56.27
2019-01-22T17:22:08.624Z,49.03
2019-01-22T17:24:35.488Z,47.67
2019-01-22T17:27:07.187Z,50.77
2019-01-22T17:29:31.377Z,56.43
2019-01-22T17:32:13.853Z,52.27
2019-01-22T17:34:45.440Z,56.93
2019-01-22T17:37:12.265Z,49.80
2019-01-22T17:39:39.123Z,41.90
2019-01-22T17:42:05.991Z,47.27
2019-01-22T17:44:32.937Z,48.73
2019-01-22T17:46:59.822Z,47.80
2019-01-22T17:49:26.739Z,42.83
2019-01-22T17:51:53.763Z,55.23
2019-01-22T17:54:20.623Z,59.20
2019-01-22T17:56:47.477Z,54.27
2019-01-22T17:59:14.408Z,50.13
2019-01-22T18:01:41.279Z,58.60
2019-01-22T18:04:08.564Z,55.13
2019-01-22T18:06:35.421Z,60.50
2019-01-22T18:09:04.526Z,49.20
2019-01-22T18:11:31.371Z,57.50
2019-01-22T18:13:58.320Z,54.03
2019-01-22T18:16:25.183Z,60.93
2019-01-22T18:18:52.084Z,61.93
2019-01-22T18:21:18.927Z,54.97
2019-01-22T18:23:45.841Z,55.30
2019-01-22T18:26:12.663Z,58.27
2019-01-22T18:28:39.509Z,64.07
2019-01-22T18:31:06.631Z,60.20
2019-01-22T18:33:33.556Z,56.23
2019-01-22T18:36:00.403Z,60.47
2019-01-22T18:38:27.263Z,69.03
2019-01-22T18:40:54.328Z,56.50
2019-01-22T18:43:21.136Z,62.17
2019-01-22T18:45:48.016Z,61.37
2019-01-22T18:48:14.927Z,51.27
2019-01-22T18:50:41.765Z,58.63
2019-01-22T18:53:08.656Z,58.37
2019-01-22T18:55:35.610Z,48.33
2019-01-22T18:58:02.639Z,46.83
2019-01-22T19:00:29.869Z,52.27
2019-01-22T19:02:57.605Z,52.10
2019-01-22T19:05:24.834Z,54.83
2019-01-22T19:07:52.022Z,45.67
2019-01-22T19:10:19.928Z,57.07
2019-01-22T19:12:46.810Z,46.87
2019-01-22T19:15:14.299Z,55.83
2019-01-22T19:17:41.156Z,51.47
2019-01-22T19:20:08.236Z,54.33
2019-01-22T19:22:35.196Z,50.00
2019-01-22T19:25:02.293Z,52.50
2019-01-22T19:27:34.042Z,55.77
2019-01-22T19:29:57.913Z,50.90
2019-01-22T19:32:24.783Z,50.30
2019-01-22T19:34:51.653Z,51.50
2019-01-22T19:37:18.608Z,49.87
2019-01-22T19:39:45.532Z,48.10
2019-01-22T19:42:12.439Z,39.60
2019-01-22T19:44:39.354Z,56.47
2019-01-22T19:47:06.282Z,49.27
2019-01-22T19:49:33.449Z,47.70
2019-01-22T19:52:00.308Z,53.30
2019-01-22T19:54:27.162Z,52.97
2019-01-22T19:56:54.112Z,55.90
2019-01-22T19:59:20.981Z,56.00
2019-01-22T20:01:47.941Z,54.40
2019-01-22T20:04:16.887Z,50.90
2019-01-22T20:06:43.933Z,52.27
2019-01-22T20:09:10.801Z,55.07
2019-01-22T20:11:37.960Z,52.10
2019-01-22T20:14:05.009Z,55.13
2019-01-22T20:16:32.059Z,54.50
2019-01-22T20:18:58.974Z,59.10
2019-01-22T20:21:25.864Z,51.57
2019-01-22T20:23:52.818Z,52.30
2019-01-22T20:26:19.824Z,53.53
2019-01-22T20:28:46.866Z,50.03
2019-01-22T20:31:13.751Z,62.13
2019-01-22T20:33:41.603Z,61.23
2019-01-22T20:36:08.610Z,54.20
2019-01-22T20:38:35.580Z,60.53
2019-01-22T20:41:02.835Z,58.53
2019-01-22T20:43:29.786Z,53.53
2019-01-22T20:45:56.705Z,48.80
2019-01-22T20:48:23.596Z,66.13
2019-01-22T20:50:50.774Z,54.30
2019-01-22T20:53:17.796Z,62.97
2019-01-22T20:55:44.709Z,60.00
2019-01-22T20:58:11.593Z,63.17
2019-01-22T21:00:38.477Z,60.33
2019-01-22T21:03:05.346Z,66.50
2019-01-22T21:05:32.397Z,65.33
2019-01-22T21:07:59.460Z,69.23
2019-01-22T21:10:27.364Z,69.97
2019-01-22T21:12:54.309Z,58.93
2019-01-22T21:15:21.190Z,64.80
2019-01-22T21:17:48.071Z,67.30
2019-01-22T21:20:15.177Z,71.90
2019-01-22T21:22:42.213Z,80.47
2019-01-22T21:25:10.246Z,66.60
2019-01-22T21:27:37.219Z,70.90
2019-01-22T21:30:04.903Z,67.87
2019-01-22T21:32:31.751Z,72.20
2019-01-22T21:34:58.632Z,70.77
2019-01-22T21:37:25.570Z,76.00
2019-01-22T21:39:52.387Z,68.33
2019-01-22T21:42:19.414Z,77.10
2019-01-22T21:44:58.169Z,77.33
2019-01-22T21:47:25.676Z,78.53
2019-01-22T21:49:52.576Z,62.17
2019-01-22T21:52:19.403Z,75.07
2019-01-22T21:54:46.267Z,77.40
2019-01-22T21:57:13.104Z,67.53
2019-01-22T21:59:40.149Z,74.07
2019-01-22T22:02:06.963Z,68.63
2019-01-22T22:04:33.885Z,66.47
2019-01-22T22:07:00.748Z,74.97
2019-01-22T22:09:27.804Z,70.40
2019-01-22T22:11:54.666Z,88.90
2019-01-22T22:14:21.593Z,81.57
2019-01-22T22:16:48.508Z,73.53
2019-01-22T22:19:15.279Z,88.23
2019-01-22T22:21:42.360Z,80.97
2019-01-22T22:24:09.623Z,87.70
2019-01-22T22:26:37.521Z,81.87
2019-01-22T22:29:04.607Z,79.53
2019-01-22T22:31:32.342Z,84.90
2019-01-22T22:33:59.537Z,94.17
2019-01-22T22:36:26.740Z,82.10
2019-01-22T22:38:54.128Z,79.60
2019-01-22T22:41:21.398Z,105.33
2019-01-22T22:43:48.471Z,85.57
2019-01-22T22:46:15.794Z,92.80
2019-01-22T22:48:42.937Z,90.70
2019-01-22T22:51:09.763Z,101.97
2019-01-22T22:53:36.819Z,101.20
2019-01-22T22:56:03.642Z,100.43
2019-01-22T22:58:30.616Z,92.13
2019-01-22T23:01:29.016Z,100.20
2019-01-22T23:03:55.908Z,106.63
2019-01-22T23:06:22.812Z,115.77
2019-01-22T23:08:49.936Z,97.13
2019-01-22T23:11:16.770Z,109.80
2019-01-22T23:13:43.633Z,106.73
2019-01-22T23:16:10.727Z,106.17
2019-01-22T23:18:37.865Z,114.43
2019-01-22T23:21:05.068Z,114.17
2019-01-22T23:23:31.953Z,118.70
2019-01-22T23:25:58.792Z,109.40
2019-01-22T23:28:28.907Z,117.07
2019-01-22T23:30:54.886Z,95.03
2019-01-22T23:33:22.004Z,86.83
2019-01-22T23:35:49.146Z,111.40
2019-01-22T23:38:16.532Z,107.83
2019-01-22T23:40:43.759Z,99.17
2019-01-22T23:43:14.400Z,90.83
2019-01-22T23:45:41.982Z,118.33
2019-01-22T23:48:09.268Z,94.73
2019-01-22T23:50:36.364Z,74.93
2019-01-22T23:53:05.459Z,92.73
2019-01-22T23:55:32.620Z,116.70
2019-01-22T23:58:00.015Z,88.07
